createdAt,value
2023-03-04T00:01:12.382Z,4.57
2023-03-04T00:03:40.256Z,4.90
2023-03-04T00:06:08.470Z,3.97
2023-03-04T00:08:36.717Z,3.43
2023-03-04T00:11:04.657Z,3.90
2023-03-04T00:13:32.541Z,3.87
2023-03-04T00:16:01.805Z,4.73
2023-03-04T00:18:29.747Z,5.37
2023-03-04T00:20:57.572Z,3.97
2023-03-04T00:23:25.492Z,4.80
2023-03-04T00:25:53.769Z,4.53
2023-03-04T00:28:21.778Z,4.50
2023-03-04T00:30:49.670Z,4.40
2023-03-04T00:33:18.883Z,4.17
2023-03-04T00:35:46.842Z,3.43
2023-03-04T00:38:14.622Z,4.70
2023-03-04T00:40:42.376Z,4.30
2023-03-04T00:43:10.354Z,4.37
2023-03-04T00:45:38.435Z,4.00
2023-03-04T00:48:06.656Z,4.93
2023-03-04T00:50:35.863Z,4.80
2023-03-04T00:53:03.747Z,3.80
2023-03-04T00:55:31.855Z,4.30
2023-03-04T00:57:59.733Z,4.17
2023-03-04T01:00:27.956Z,4.83
2023-03-04T01:02:56.214Z,3.77
2023-03-04T01:05:24.064Z,4.10
2023-03-04T01:07:53.919Z,4.53
2023-03-04T01:10:22.078Z,3.87
2023-03-04T01:12:49.980Z,4.10
2023-03-04T01:15:17.851Z,4.20
2023-03-04T01:17:45.962Z,5.00
2023-03-04T01:20:15.094Z,4.37
2023-03-04T01:22:42.941Z,4.73
2023-03-04T01:25:12.396Z,3.77
2023-03-04T01:27:40.234Z,4.17
2023-03-04T01:30:09.449Z,3.53
2023-03-04T01:32:37.319Z,3.80
2023-03-04T01:35:05.641Z,3.70
2023-03-04T01:37:33.769Z,2.90
2023-03-04T01:40:01.618Z,3.67
2023-03-04T01:42:34.926Z,3.83
2023-03-04T01:45:03.158Z,4.00
2023-03-04T01:47:34.440Z,3.87
2023-03-04T01:50:05.386Z,3.60
2023-03-04T01:52:33.374Z,3.43
2023-03-04T01:55:01.445Z,3.47
2023-03-04T01:57:36.553Z,3.17
2023-03-04T02:00:20.956Z,4.80
2023-03-04T02:02:51.144Z,5.33
2023-03-04T02:05:19.200Z,6.33
2023-03-04T02:07:47.191Z,5.17
2023-03-04T02:10:15.034Z,3.90
2023-03-04T02:12:45.054Z,4.30
2023-03-04T02:15:14.796Z,3.57
2023-03-04T02:17:42.627Z,3.90
2023-03-04T02:20:22.656Z,3.53
2023-03-04T02:22:59.024Z,3.80
2023-03-04T02:25:34.594Z,3.00
2023-03-04T02:28:03.924Z,2.30
2023-03-04T02:30:32.219Z,3.93
2023-03-04T02:33:00.361Z,2.70
2023-03-04T02:35:28.387Z,3.13
2023-03-04T02:37:56.243Z,2.50
2023-03-04T02:40:28.148Z,3.13
2023-03-04T02:42:56.133Z,2.47
2023-03-04T02:45:43.955Z,3.77
2023-03-04T02:48:13.082Z,2.20
2023-03-04T02:50:44.513Z,2.80
2023-03-04T02:53:12.799Z,2.33
2023-03-04T02:55:44.923Z,3.07
2023-03-04T02:58:13.268Z,2.97
2023-03-04T03:00:43.267Z,2.90
2023-03-04T03:03:11.250Z,3.03
2023-03-04T03:05:39.974Z,2.97
2023-03-04T03:08:08.079Z,3.33
2023-03-04T03:10:35.976Z,2.70
2023-03-04T03:13:04.032Z,2.63
2023-03-04T03:15:31.870Z,2.90
2023-03-04T03:18:01.105Z,2.43
2023-03-04T03:20:28.868Z,2.77
2023-03-04T03:22:56.650Z,2.30
2023-03-04T03:25:24.419Z,2.90
2023-03-04T03:27:52.352Z,2.90
2023-03-04T03:30:20.180Z,2.40
2023-03-04T03:32:48.028Z,2.17
2023-03-04T03:35:17.457Z,2.93
2023-03-04T03:37:45.281Z,1.50
2023-03-04T03:40:14.399Z,2.37
2023-03-04T03:42:42.221Z,2.20
2023-03-04T03:45:10.802Z,2.40
2023-03-04T03:47:38.558Z,2.07
2023-03-04T03:50:07.738Z,1.70
2023-03-04T03:52:36.938Z,2.10
2023-03-04T03:55:05.238Z,1.80
2023-03-04T03:57:33.650Z,2.33
2023-03-04T04:00:02.400Z,2.27
2023-03-04T04:02:30.399Z,2.83
2023-03-04T04:04:58.661Z,2.07
2023-03-04T04:07:26.796Z,1.93
2023-03-04T04:09:56.057Z,1.77
2023-03-04T04:12:23.865Z,2.43
2023-03-04T04:14:51.792Z,2.33
2023-03-04T04:17:19.576Z,2.13
2023-03-04T04:19:47.517Z,2.07
2023-03-04T04:22:16.627Z,1.70
2023-03-04T04:24:44.484Z,2.00
2023-03-04T04:27:14.219Z,1.70
2023-03-04T04:29:42.504Z,1.53
2023-03-04T04:32:13.173Z,2.17
2023-03-04T04:34:41.048Z,1.93
2023-03-04T04:37:08.855Z,2.60
2023-03-04T04:39:36.759Z,2.23
2023-03-04T04:42:05.012Z,2.43
2023-03-04T04:44:34.340Z,1.80
2023-03-04T04:47:02.212Z,3.00
2023-03-04T04:49:30.005Z,3.50
2023-03-04T04:51:57.866Z,2.17
2023-03-04T04:54:25.965Z,2.03
2023-03-04T04:56:53.824Z,2.80
2023-03-04T04:59:21.814Z,2.33
2023-03-04T05:01:51.113Z,2.20
2023-03-04T05:04:18.949Z,3.07
2023-03-04T05:06:46.911Z,3.90
2023-03-04T05:09:15.013Z,3.17
2023-03-04T05:11:42.935Z,2.90
2023-03-04T05:14:10.971Z,3.07
2023-03-04T05:16:39.043Z,3.17
2023-03-04T05:19:08.371Z,3.20
2023-03-04T05:21:36.264Z,3.00
2023-03-04T05:24:04.149Z,3.53
2023-03-04T05:26:32.042Z,4.03
2023-03-04T05:28:59.904Z,2.77
2023-03-04T05:31:27.820Z,2.33
2023-03-04T05:33:55.844Z,3.00
2023-03-04T05:36:25.122Z,3.10
2023-03-04T05:38:53.461Z,2.40
2023-03-04T05:41:22.745Z,3.20
2023-03-04T05:43:51.266Z,2.93
2023-03-04T05:46:24.213Z,2.57
2023-03-04T05:48:53.138Z,2.57
2023-03-04T05:51:21.063Z,2.67
2023-03-04T05:53:50.553Z,2.23
2023-03-04T05:56:21.179Z,3.63
2023-03-04T05:58:49.388Z,2.00
2023-03-04T06:01:17.898Z,1.80
2023-03-04T06:03:48.497Z,2.30
2023-03-04T06:06:16.457Z,2.50
2023-03-04T06:08:44.583Z,1.80
2023-03-04T06:11:13.836Z,2.00
2023-03-04T06:13:41.705Z,1.60
2023-03-04T06:16:10.354Z,2.50
2023-03-04T06:18:38.265Z,2.00
2023-03-04T06:21:06.716Z,2.67
2023-03-04T06:23:34.731Z,2.43
2023-03-04T06:26:02.636Z,2.67
2023-03-04T06:28:31.900Z,2.87
2023-03-04T06:30:59.838Z,2.40
2023-03-04T06:33:27.778Z,2.10
2023-03-04T06:35:56.671Z,2.30
2023-03-04T06:38:24.972Z,2.57
2023-03-04T06:40:57.522Z,2.33
2023-03-04T06:43:25.739Z,1.70
2023-03-04T06:45:58.031Z,1.90
2023-03-04T06:48:25.921Z,1.53
2023-03-04T06:50:55.807Z,2.47
2023-03-04T06:53:23.690Z,2.10
2023-03-04T06:55:51.542Z,1.97
2023-03-04T06:58:19.373Z,2.67
2023-03-04T07:00:47.795Z,2.10
2023-03-04T07:03:17.074Z,1.90
2023-03-04T07:05:45.085Z,2.37
2023-03-04T07:08:12.879Z,2.90
2023-03-04T07:10:40.746Z,2.90
2023-03-04T07:13:08.574Z,2.73
2023-03-04T07:15:36.517Z,2.27
2023-03-04T07:18:04.463Z,3.80
2023-03-04T07:20:33.663Z,2.87
2023-03-04T07:23:01.631Z,2.87
2023-03-04T07:25:29.721Z,3.13
2023-03-04T07:27:57.696Z,3.43
2023-03-04T07:30:25.703Z,3.00
2023-03-04T07:32:54.550Z,3.17
2023-03-04T07:35:22.369Z,2.70
2023-03-04T07:37:51.700Z,2.80
2023-03-04T07:40:22.927Z,2.53
2023-03-04T07:42:51.388Z,2.27
2023-03-04T07:45:19.575Z,2.20
2023-03-04T07:47:47.423Z,2.77
2023-03-04T07:50:17.981Z,3.17
2023-03-04T07:52:48.504Z,3.43
2023-03-04T07:55:18.324Z,3.63
2023-03-04T07:57:48.405Z,3.10
2023-03-04T08:00:18.129Z,3.40
2023-03-04T08:02:45.987Z,3.10
2023-03-04T08:05:15.817Z,2.80
2023-03-04T08:07:43.758Z,2.57
2023-03-04T08:10:12.817Z,2.97
2023-03-04T08:12:42.093Z,3.10
2023-03-04T08:15:10.879Z,2.53
2023-03-04T08:17:39.393Z,3.60
2023-03-04T08:20:08.660Z,3.77
2023-03-04T08:22:36.575Z,5.73
2023-03-04T08:25:04.883Z,6.57
2023-03-04T08:27:37.216Z,5.83
2023-03-04T08:30:08.400Z,5.87
2023-03-04T08:32:36.588Z,7.50
2023-03-04T08:35:04.982Z,7.03
2023-03-04T08:37:33.135Z,6.07
2023-03-04T08:40:01.016Z,6.13
2023-03-04T08:42:30.586Z,5.73
2023-03-04T08:44:58.993Z,5.93
2023-03-04T08:47:29.099Z,5.47
2023-03-04T08:49:58.793Z,7.37
2023-03-04T08:52:27.407Z,7.17
2023-03-04T08:54:56.115Z,7.93
2023-03-04T08:58:05.079Z,7.57
2023-03-04T09:01:39.966Z,7.30
2023-03-04T09:04:26.318Z,5.87
2023-03-04T09:07:00.238Z,5.60
2023-03-04T09:09:49.324Z,6.57
2023-03-04T09:12:19.157Z,6.70
2023-03-04T09:14:53.240Z,7.47
2023-03-04T09:17:26.403Z,5.60
2023-03-04T09:19:56.908Z,4.20
2023-03-04T09:22:25.912Z,4.20
2023-03-04T09:25:00.281Z,2.67
2023-03-04T09:27:31.304Z,2.83
2023-03-04T09:30:00.853Z,2.03
2023-03-04T09:32:38.384Z,2.43
2023-03-04T09:39:00.773Z,2.13
2023-03-04T09:41:45.078Z,1.90
2023-03-04T09:44:48.096Z,2.60
2023-03-04T09:48:04.613Z,2.33
2023-03-04T09:51:04.894Z,2.73
2023-03-04T09:53:54.465Z,2.40
2023-03-04T09:56:44.189Z,3.20
2023-03-04T09:59:52.206Z,2.80
2023-03-04T10:02:35.657Z,3.57
2023-03-04T10:05:08.404Z,3.10
2023-03-04T10:07:57.640Z,3.43
2023-03-04T10:10:38.432Z,3.80
2023-03-04T10:13:11.990Z,3.27
2023-03-04T10:15:48.713Z,3.70
2023-03-04T10:18:22.833Z,3.70
2023-03-04T10:21:02.665Z,3.77
2023-03-04T10:23:34.974Z,3.07
2023-03-04T10:26:13.631Z,3.30
2023-03-04T10:28:43.728Z,3.30
2023-03-04T10:31:20.571Z,3.13
2023-03-04T10:34:06.336Z,2.90
2023-03-04T10:36:47.910Z,3.43
2023-03-04T10:39:24.956Z,2.93
2023-03-04T10:41:59.541Z,3.43
2023-03-04T10:44:36.454Z,4.13
2023-03-04T10:47:11.342Z,3.17
2023-03-04T10:49:52.416Z,3.80
2023-03-04T10:52:31.565Z,3.97
2023-03-04T10:55:07.101Z,2.87
2023-03-04T10:57:37.952Z,2.73
2023-03-04T11:01:12.663Z,3.20
2023-03-04T11:04:02.036Z,2.53
2023-03-04T11:07:29.488Z,2.70
2023-03-04T11:10:10.888Z,2.33
2023-03-04T11:12:41.464Z,3.13
2023-03-04T11:15:33.163Z,2.07
2023-03-04T11:18:27.252Z,1.27
2023-03-04T11:21:01.640Z,1.90
2023-03-04T11:24:06.211Z,1.57
2023-03-04T11:26:43.163Z,2.37
2023-03-04T11:29:24.054Z,1.87
2023-03-04T11:31:59.782Z,1.90
2023-03-04T11:34:40.479Z,1.50
2023-03-04T11:37:17.097Z,1.40
2023-03-04T11:39:51.074Z,2.00
2023-03-04T11:42:33.070Z,1.67
2023-03-04T11:45:01.228Z,2.27
2023-03-04T11:47:53.980Z,1.93
2023-03-04T11:50:31.085Z,1.40
2023-03-04T11:53:26.776Z,2.20
2023-03-04T11:56:05.789Z,1.87
2023-03-04T11:58:49.687Z,2.43
2023-03-04T12:01:25.433Z,2.20
2023-03-04T12:04:08.592Z,1.87
2023-03-04T12:06:44.485Z,1.60
2023-03-04T12:09:35.153Z,1.60
2023-03-04T12:12:15.453Z,1.40
2023-03-04T12:14:50.093Z,1.53
2023-03-04T12:17:38.138Z,1.63
2023-03-04T12:20:31.803Z,1.40
2023-03-04T12:23:12.849Z,1.87
2023-03-04T12:25:46.832Z,1.50
2023-03-04T12:28:30.743Z,1.53
2023-03-04T12:32:13.275Z,2.40
2023-03-04T12:35:16.124Z,1.67
2023-03-04T12:38:28.585Z,2.30
2023-03-04T12:41:05.783Z,2.40
2023-03-04T12:43:48.415Z,2.43
2023-03-04T12:46:36.664Z,2.47
2023-03-04T12:49:44.563Z,2.10
2023-03-04T12:52:20.612Z,2.10
2023-03-04T12:54:51.550Z,1.93
2023-03-04T12:57:45.380Z,2.33
2023-03-04T13:00:25.726Z,2.60
2023-03-04T13:04:19.441Z,2.10
2023-03-04T13:07:12.665Z,2.07
2023-03-04T13:09:50.288Z,2.50
2023-03-04T13:12:22.362Z,2.33
2023-03-04T13:15:29.108Z,2.97
2023-03-04T13:18:09.455Z,2.80
2023-03-04T13:21:25.020Z,3.03
2023-03-04T13:24:54.933Z,2.40
2023-03-04T13:28:07.248Z,1.90
2023-03-04T13:31:14.717Z,2.30
2023-03-04T13:34:35.259Z,1.90
2023-03-04T13:37:39.696Z,2.60
2023-03-04T13:40:48.330Z,2.27
2023-03-04T13:43:31.629Z,3.07
2023-03-04T13:46:54.198Z,2.47
2023-03-04T13:49:25.920Z,2.23
2023-03-04T13:51:56.832Z,2.30
2023-03-04T13:54:30.972Z,2.13
2023-03-04T13:57:23.168Z,3.03
2023-03-04T14:00:04.734Z,2.97
2023-03-04T14:02:35.684Z,2.43
2023-03-04T14:05:04.012Z,2.20
2023-03-04T14:07:35.388Z,2.53
2023-03-04T14:11:01.923Z,2.50
2023-03-04T14:13:31.930Z,2.90
2023-03-04T14:16:03.231Z,2.93
2023-03-04T14:18:34.052Z,3.53
2023-03-04T14:21:02.539Z,3.37
2023-03-04T14:23:32.613Z,2.90
2023-03-04T14:26:12.642Z,3.40
2023-03-04T14:28:47.710Z,3.07
2023-03-04T14:31:20.752Z,3.17
2023-03-04T14:33:52.741Z,3.43
2023-03-04T14:36:24.555Z,3.37
2023-03-04T14:38:59.105Z,2.47
2023-03-04T14:41:30.898Z,2.10
2023-03-04T14:44:08.673Z,2.50
2023-03-04T14:46:41.701Z,2.70
2023-03-04T14:49:14.830Z,2.83
2023-03-04T14:52:04.030Z,2.30
2023-03-04T14:54:39.284Z,2.53
2023-03-04T14:57:40.418Z,2.07
2023-03-04T15:07:54.877Z,2.27
2023-03-04T15:10:43.014Z,2.40
2023-03-04T15:18:08.769Z,2.90
2023-03-04T15:20:47.884Z,2.67
2023-03-04T15:23:16.165Z,3.30
2023-03-04T15:25:44.537Z,3.10
2023-03-04T15:28:19.052Z,2.53
2023-03-04T15:31:19.176Z,2.20
2023-03-04T15:33:51.467Z,2.10
2023-03-04T15:41:37.661Z,2.77
2023-03-04T15:48:10.688Z,2.87
2023-03-04T15:50:49.673Z,4.03
2023-03-04T15:53:36.169Z,3.97
2023-03-04T15:56:56.460Z,3.90
2023-03-04T16:04:21.639Z,3.57
2023-03-04T16:07:09.961Z,2.97
2023-03-04T16:10:33.168Z,2.60
2023-03-04T16:17:13.171Z,2.50
2023-03-04T16:19:46.924Z,3.40
2023-03-04T16:30:56.876Z,2.30
2023-03-04T16:33:30.257Z,2.40
2023-03-04T16:36:02.164Z,2.53
2023-03-04T16:38:38.968Z,2.73
2023-03-04T16:41:15.181Z,2.93
2023-03-04T16:43:55.203Z,2.50
2023-03-04T16:46:28.255Z,2.37
2023-03-04T16:49:01.039Z,2.67
2023-03-04T16:51:33.164Z,3.23
2023-03-04T16:54:05.337Z,2.97
2023-03-04T16:57:02.845Z,2.53
2023-03-04T17:00:01.310Z,1.63
2023-03-04T17:06:22.563Z,2.13
2023-03-04T17:08:56.082Z,1.40
2023-03-04T17:11:29.400Z,1.50
2023-03-04T17:14:00.560Z,2.27
2023-03-04T17:16:41.527Z,1.77
2023-03-04T17:19:13.769Z,1.63
2023-03-04T17:22:01.823Z,1.90
2023-03-04T17:25:29.843Z,2.33
2023-03-04T17:28:04.086Z,2.73
2023-03-04T17:31:01.957Z,2.03
2023-03-04T17:33:45.277Z,2.07
2023-03-04T17:36:24.987Z,2.03
2023-03-04T17:38:59.688Z,2.07
2023-03-04T17:41:44.420Z,2.00
2023-03-04T17:44:19.877Z,2.80
2023-03-04T17:47:12.015Z,2.30
2023-03-04T17:49:50.653Z,1.90
2023-03-04T17:52:40.605Z,1.63
2023-03-04T17:55:35.568Z,1.57
2023-03-04T18:06:34.730Z,2.53
2023-03-04T18:09:02.387Z,3.03
2023-03-04T18:11:31.610Z,2.80
2023-03-04T18:13:59.797Z,2.70
2023-03-04T18:16:28.857Z,1.87
2023-03-04T18:18:58.637Z,2.43
2023-03-04T18:22:11.655Z,2.00
2023-03-04T18:25:19.021Z,2.23
2023-03-04T18:27:49.840Z,2.40
2023-03-04T18:30:21.013Z,2.37
2023-03-04T18:41:17.312Z,2.50
2023-03-04T18:43:45.753Z,2.20
2023-03-04T18:46:29.438Z,2.50
2023-03-04T18:49:03.029Z,2.43
2023-03-04T18:51:43.458Z,2.70
2023-03-04T18:54:46.807Z,2.57
2023-03-04T18:57:46.571Z,2.83
2023-03-04T19:00:18.276Z,2.57
2023-03-04T19:02:57.611Z,2.20
2023-03-04T19:05:33.222Z,2.83
2023-03-04T19:08:08.472Z,2.70
2023-03-04T19:10:38.963Z,2.77
2023-03-04T19:13:08.573Z,2.40
2023-03-04T19:15:36.620Z,4.37
2023-03-04T19:18:05.525Z,2.83
2023-03-04T19:20:33.538Z,3.33
2023-03-04T19:23:03.101Z,2.70
2023-03-04T19:29:12.695Z,2.70
2023-03-04T19:32:31.579Z,2.10
2023-03-04T19:43:55.370Z,2.00
2023-03-04T19:47:37.209Z,2.47
2023-03-04T19:51:27.633Z,1.77
2023-03-04T19:57:38.858Z,3.10
2023-03-04T20:00:11.648Z,2.20
2023-03-04T20:03:38.326Z,2.30
2023-03-04T20:06:10.061Z,2.90
2023-03-04T20:12:48.289Z,2.83
2023-03-04T20:15:16.277Z,2.80
2023-03-04T20:18:40.135Z,2.73
2023-03-04T20:21:24.258Z,2.93
2023-03-04T20:24:04.689Z,3.30
2023-03-04T20:26:54.127Z,2.47
2023-03-04T20:29:22.299Z,3.40
2023-03-04T20:32:47.179Z,3.60
2023-03-04T20:35:44.149Z,2.73
2023-03-04T20:38:14.329Z,2.73
2023-03-04T20:40:42.545Z,3.00
2023-03-04T20:43:14.840Z,3.10
2023-03-04T20:45:52.770Z,2.70
2023-03-04T20:48:21.222Z,3.10
2023-03-04T20:50:49.012Z,2.67
2023-03-04T20:53:18.262Z,3.67
2023-03-04T20:55:46.147Z,3.10
2023-03-04T20:58:25.868Z,4.13
2023-03-04T21:02:14.004Z,3.97
2023-03-04T21:05:03.715Z,3.67
2023-03-04T21:07:32.041Z,3.27
2023-03-04T21:10:02.645Z,3.47
2023-03-04T21:12:30.463Z,2.97
2023-03-04T21:15:11.147Z,3.30
2023-03-04T21:17:39.103Z,2.90
2023-03-04T21:20:08.887Z,4.37
2023-03-04T21:22:38.011Z,3.87
2023-03-04T21:25:09.045Z,3.10
2023-03-04T21:27:42.671Z,3.00
2023-03-04T21:31:09.258Z,3.33
2023-03-04T21:37:27.517Z,3.40
2023-03-04T21:41:23.113Z,3.80
2023-03-04T21:49:19.295Z,2.90
2023-03-04T21:52:00.599Z,2.83
2023-03-04T21:54:50.702Z,3.40
2023-03-04T21:57:21.534Z,2.83
2023-03-04T22:00:15.762Z,2.30
2023-03-04T22:06:06.411Z,3.43
2023-03-04T22:08:34.360Z,2.80
2023-03-04T22:11:04.330Z,3.17
2023-03-04T22:13:32.421Z,2.93
2023-03-04T22:16:00.805Z,2.60
2023-03-04T22:18:30.388Z,1.93
2023-03-04T22:21:02.112Z,2.20
2023-03-04T22:23:30.263Z,2.87
2023-03-04T22:26:02.474Z,3.73
2023-03-04T22:28:30.270Z,2.37
2023-03-04T22:30:58.300Z,2.83
2023-03-04T22:33:26.378Z,2.23
2023-03-04T22:35:55.839Z,2.03
2023-03-04T22:38:23.716Z,2.07
2023-03-04T22:40:51.547Z,2.23
2023-03-04T22:43:19.664Z,2.50
2023-03-04T22:45:48.020Z,2.43
2023-03-04T22:48:16.009Z,1.70
2023-03-04T22:50:43.789Z,1.97
2023-03-04T22:53:13.929Z,2.90
2023-03-04T22:55:41.837Z,3.47
2023-03-04T22:58:09.718Z,2.70
2023-03-04T23:00:39.244Z,2.47
2023-03-04T23:03:08.551Z,2.57
2023-03-04T23:05:36.394Z,2.90
2023-03-04T23:08:04.217Z,2.47
2023-03-04T23:10:34.055Z,2.67
2023-03-04T23:13:02.037Z,1.90
2023-03-04T23:15:29.775Z,2.57
2023-03-04T23:17:57.572Z,2.87
2023-03-04T23:20:25.558Z,2.47
2023-03-04T23:22:53.462Z,2.23
2023-03-04T23:25:21.651Z,2.93
2023-03-04T23:27:50.965Z,2.53
2023-03-04T23:30:18.816Z,2.53
2023-03-04T23:32:46.650Z,3.37
2023-03-04T23:35:14.540Z,2.70
2023-03-04T23:37:42.361Z,2.57
2023-03-04T23:40:11.732Z,2.30
2023-03-04T23:42:40.237Z,2.20
2023-03-04T23:45:11.002Z,2.40
2023-03-04T23:47:38.821Z,2.97
2023-03-04T23:50:08.837Z,2.10
2023-03-04T23:52:36.833Z,2.27
2023-03-04T23:55:05.423Z,2.47
2023-03-04T23:57:33.281Z,2.70
